Time;durP1;ratioP1;P1;durP2;ratioP2;P2;SDS_P1;SDS_P2;PMS_P1;PMS_P2;Temp;Humidity;BMP_temperature;BMP_pressure;BME280_temperature;BME280_humidity;BME280_pressure;Samples;Min_cycle;Max_cycle;Signal;HPM_P1;HPM_P2
2021/01/02 00:00:03;;;;;;;39.63;17.57;;;2.40;99.90;;;;;;4170578;28;20181;-92
2021/01/02 00:02:20;;;;;;;31.30;17.93;;;2.40;99.90;;;;;;4201308;22;20278;-92
2021/01/02 00:05:11;;;;;;;33.00;17.83;;;2.30;99.90;;;;;;4208424;22;20318;-93
2021/01/02 00:07:34;;;;;;;35.50;17.43;;;2.50;99.90;;;;;;4200871;22;20208;-92
2021/01/02 00:09:45;;;;;;;31.70;16.93;;;2.50;99.90;;;;;;4169484;28;20161;-93
2021/01/02 00:12:55;;;;;;;34.17;17.00;;;2.30;99.90;;;;;;4200214;22;20233;-91
2021/01/02 00:15:36;;;;;;;33.30;17.67;;;2.10;99.90;;;;;;4202197;28;20185;-91
2021/01/02 00:18:16;;;;;;;30.70;16.87;;;2.20;99.90;;;;;;4220280;22;20299;-92
2021/01/02 00:20:41;;;;;;;32.87;16.67;;;2.10;99.90;;;;;;4119930;28;20186;-91
2021/01/02 00:23:21;;;;;;;32.83;17.13;;;2.10;99.90;;;;;;4209786;22;20303;-91
2021/01/02 00:25:34;;;;;;;30.87;15.83;;;2.30;99.90;;;;;;4190850;22;20195;-92
2021/01/02 00:28:23;;;;;;;32.23;16.83;;;2.30;99.90;;;;;;4193984;23;20232;-93
2021/01/02 00:30:58;;;;;;;30.97;16.07;;;2.50;99.90;;;;;;4164695;22;20239;-92
2021/01/02 00:33:49;;;;;;;35.17;16.50;;;2.60;99.90;;;;;;4185268;22;20208;-91
2021/01/02 00:38:44;;;;;;;28.70;14.90;;;2.60;99.90;;;;;;4188225;22;20232;-90
2021/01/02 00:41:01;;;;;;;32.47;16.23;;;2.50;99.90;;;;;;4150533;22;20240;-92
2021/01/02 00:43:05;;;;;;;32.20;16.20;;;2.50;99.90;;;;;;4168103;22;20233;-91
2021/01/02 00:45:48;;;;;;;29.20;16.50;;;2.60;99.90;;;;;;4178033;22;20251;-93
2021/01/02 00:48:19;;;;;;;31.87;17.50;;;2.80;99.90;;;;;;4188699;22;20224;-92
2021/01/02 00:51:06;;;;;;;34.20;17.23;;;2.90;99.90;;;;;;4236442;22;20216;-92
2021/01/02 00:56:46;;;;;;;30.47;16.07;;;2.50;99.90;;;;;;4175619;22;20177;-91
2021/01/02 00:59:02;;;;;;;31.17;16.23;;;2.50;99.90;;;;;;4157552;23;20224;-91
2021/01/02 01:07:08;;;;;;;37.50;17.50;;;2.10;99.90;;;;;;4189093;22;20251;-92
2021/01/02 01:10:06;;;;;;;35.33;18.67;;;2.00;99.90;;;;;;4190571;22;20180;-91
2021/01/02 01:12:08;;;;;;;32.13;17.97;;;2.00;99.90;;;;;;4168036;28;20200;-93
2021/01/02 01:14:34;;;;;;;37.07;19.40;;;2.00;99.90;;;;;;4273699;22;20241;-92
2021/01/02 01:17:11;;;;;;;37.67;18.83;;;2.00;99.90;;;;;;4217897;22;20178;-93
2021/01/02 01:19:34;;;;;;;32.37;18.63;;;2.00;99.90;;;;;;4177576;22;20211;-91
2021/01/02 01:22:04;;;;;;;45.37;18.83;;;2.10;99.90;;;;;;4203810;22;20250;-92
2021/01/02 01:24:37;;;;;;;38.90;18.83;;;2.00;99.90;;;;;;4184097;28;20172;-92
2021/01/02 01:27:02;;;;;;;38.63;18.87;;;1.90;99.90;;;;;;4176997;23;20231;-92
2021/01/02 01:29:55;;;;;;;40.43;18.37;;;1.80;99.90;;;;;;4191255;22;20180;-92
2021/01/02 01:32:05;;;;;;;37.10;18.37;;;1.90;99.90;;;;;;4190444;22;20231;-92
2021/01/02 01:34:07;;;;;;;37.03;18.27;;;1.90;99.90;;;;;;4166622;28;20241;-92
2021/01/02 01:36:51;;;;;;;36.90;18.67;;;1.90;99.90;;;;;;4147903;23;20204;-93
2021/01/02 01:39:14;;;;;;;37.80;18.17;;;1.90;99.90;;;;;;4149562;28;20205;-92
2021/01/02 01:41:20;;;;;;;40.13;18.73;;;2.00;99.90;;;;;;4160677;22;20197;-93
2021/01/02 01:43:49;;;;;;;34.67;17.37;;;2.10;99.90;;;;;;4190181;22;20232;-93
2021/01/02 01:46:14;;;;;;;39.10;17.83;;;2.20;99.90;;;;;;4195218;22;20250;-92
2021/01/02 01:49:08;;;;;;;36.67;18.77;;;2.30;99.90;;;;;;4195142;22;20354;-91
2021/01/02 01:51:28;;;;;;;32.53;17.47;;;2.60;99.90;;;;;;4209248;22;20242;-90
2021/01/02 01:53:54;;;;;;;35.00;15.70;;;2.40;99.90;;;;;;4306362;22;20266;-92
2021/01/02 01:56:16;;;;;;;37.27;17.73;;;2.20;99.90;;;;;;4196310;22;20236;-92
2021/01/02 01:58:42;;;;;;;38.97;17.80;;;2.10;99.90;;;;;;4158522;23;20224;-91
2021/01/02 02:01:24;;;;;;;34.60;17.57;;;2.10;99.90;;;;;;4182829;28;20222;-92
2021/01/02 02:03:49;;;;;;;33.10;16.87;;;2.00;99.90;;;;;;4190770;22;20236;-93
2021/01/02 02:08:16;;;;;;;34.37;17.80;;;1.90;99.90;;;;;;4288831;22;20207;-91
2021/01/02 02:11:14;;;;;;;29.67;16.87;;;2.10;99.90;;;;;;4174310;22;20237;-92
2021/01/02 02:16:37;;;;;;;32.27;15.77;;;2.20;99.90;;;;;;4181557;28;20207;-93
2021/01/02 02:19:05;;;;;;;30.83;14.83;;;2.40;99.90;;;;;;4179452;23;20229;-92
2021/01/02 02:21:37;;;;;;;30.67;14.00;;;2.40;99.90;;;;;;4179975;22;20235;-91
2021/01/02 02:26:49;;;;;;;32.57;14.93;;;2.40;99.90;;;;;;4179122;22;20214;-92
2021/01/02 02:28:53;;;;;;;35.40;15.67;;;2.30;99.90;;;;;;4162871;23;20216;-92
2021/01/02 02:31:15;;;;;;;30.93;15.53;;;2.40;99.90;;;;;;4168893;22;20219;-92
2021/01/02 02:34:03;;;;;;;32.57;14.70;;;2.40;99.90;;;;;;4205729;22;20222;-93
2021/01/02 02:36:49;;;;;;;28.10;14.53;;;2.30;99.90;;;;;;4196657;22;20207;-91
2021/01/02 02:39:26;;;;;;;34.37;16.27;;;2.40;99.90;;;;;;4200662;28;20171;-92
2021/01/02 02:41:32;;;;;;;28.10;14.93;;;2.60;99.90;;;;;;4169611;22;20720;-91
2021/01/02 02:47:07;;;;;;;31.77;15.47;;;2.80;99.90;;;;;;3644531;22;15063671;-92
2021/01/02 02:49:44;;;;;;;29.90;13.17;;;2.60;99.90;;;;;;4159938;22;20282;-92
2021/01/02 02:52:23;;;;;;;35.00;14.53;;;2.40;99.90;;;;;;4148711;22;20222;-92
2021/01/02 02:55:39;;;;;;;33.90;15.80;;;2.50;99.90;;;;;;4179288;22;20207;-91
2021/01/02 02:58:13;;;;;;;31.37;15.23;;;2.50;99.90;;;;;;4188099;22;20232;-91
2021/01/02 03:00:40;;;;;;;36.13;15.40;;;2.40;99.90;;;;;;4200717;22;20201;-91
2021/01/02 03:03:13;;;;;;;30.00;14.57;;;2.20;99.90;;;;;;4193078;22;20294;-92
2021/01/02 03:06:14;;;;;;;29.30;14.90;;;2.20;99.90;;;;;;4207048;22;20235;-92
2021/01/02 03:08:24;;;;;;;33.37;15.97;;;2.40;99.90;;;;;;4190954;22;20316;-91
2021/01/02 03:11:08;;;;;;;30.40;15.13;;;2.60;99.90;;;;;;4169599;28;20180;-92
2021/01/02 03:13:48;;;;;;;33.87;15.13;;;2.50;99.90;;;;;;4187403;22;20295;-92
2021/01/02 03:15:52;;;;;;;36.00;15.80;;;2.30;99.90;;;;;;4176410;23;20279;-91
2021/01/02 03:18:28;;;;;;;33.13;15.07;;;2.40;99.90;;;;;;4167207;28;20207;-92
2021/01/02 03:20:32;;;;;;;32.77;15.27;;;2.40;99.90;;;;;;4260824;23;20185;-91
2021/01/02 03:22:57;;;;;;;28.73;14.33;;;2.40;99.90;;;;;;4193308;22;20223;-92
2021/01/02 03:25:03;;;;;;;29.60;14.87;;;2.40;99.90;;;;;;4202882;22;20288;-91
2021/01/02 03:27:26;;;;;;;31.40;15.10;;;2.50;99.90;;;;;;4136957;28;20154;-90
2021/01/02 03:29:48;;;;;;;30.77;15.33;;;2.60;99.90;;;;;;4167770;28;20185;-92
2021/01/02 03:34:26;;;;;;;30.87;15.00;;;2.80;99.90;;;;;;4175773;22;20243;-92
2021/01/02 03:36:47;;;;;;;29.37;14.17;;;2.70;99.90;;;;;;4181669;22;20233;-92
2021/01/02 03:38:59;;;;;;;28.57;13.77;;;2.60;99.90;;;;;;4169419;28;20197;-92
2021/01/02 03:41:05;;;;;;;38.70;15.60;;;2.50;99.90;;;;;;4160568;23;20253;-92
2021/01/02 03:43:10;;;;;;;27.47;13.00;;;2.40;99.90;;;;;;4168526;28;20629;-91
2021/01/02 03:45:25;;;;;;;27.73;14.33;;;2.50;99.90;;;;;;4168108;22;20173;-91
2021/01/02 03:47:51;;;;;;;32.77;14.53;;;2.60;99.90;;;;;;4162733;22;20196;-91
2021/01/02 03:50:32;;;;;;;27.40;14.03;;;2.50;99.90;;;;;;4186477;28;20531;-92
2021/01/02 03:52:52;;;;;;;32.57;13.87;;;2.60;99.90;;;;;;4380150;22;20254;-92
2021/01/02 03:55:20;;;;;;;28.30;14.07;;;2.60;99.90;;;;;;4172893;22;20221;-91
2021/01/02 03:57:26;;;;;;;27.53;14.53;;;2.50;99.90;;;;;;4161004;23;20221;-91
2021/01/02 03:59:50;;;;;;;30.47;14.50;;;2.80;99.90;;;;;;4205391;22;20226;-91
2021/01/02 04:04:43;;;;;;;26.87;13.77;;;3.10;99.90;;;;;;4203605;22;20203;31
2021/01/02 04:07:08;;;;;;;29.93;14.20;;;3.00;99.90;;;;;;4183143;23;20215;-92
2021/01/02 04:11:59;;;;;;;29.87;13.80;;;2.90;99.90;;;;;;4336997;22;20301;31
2021/01/02 04:14:02;;;;;;;28.40;14.70;;;2.80;99.90;;;;;;4158930;23;20229;-91
2021/01/02 04:16:08;;;;;;;38.43;15.90;;;2.90;99.90;;;;;;4185232;28;20247;-93
2021/01/02 04:18:13;;;;;;;37.27;15.67;;;2.80;99.90;;;;;;4175397;22;20212;31
2021/01/02 04:20:17;;;;;;;30.83;14.90;;;2.90;99.90;;;;;;4182744;22;20298;-91
2021/01/02 04:22:17;;;;;;;31.27;15.17;;;2.90;99.90;;;;;;4186264;22;20256;-92
2021/01/02 04:24:38;;;;;;;31.33;14.87;;;2.80;99.90;;;;;;4221839;22;20287;-91
2021/01/02 04:27:12;;;;;;;29.60;14.37;;;2.90;99.90;;;;;;4183757;22;20214;-91
2021/01/02 04:29:13;;;;;;;30.43;14.80;;;2.70;99.90;;;;;;4229407;22;20234;-93
2021/01/02 04:31:33;;;;;;;28.57;13.63;;;2.70;99.90;;;;;;4201508;22;20204;-91
2021/01/02 04:33:40;;;;;;;30.77;15.23;;;2.80;99.90;;;;;;4194339;22;20244;-92
2021/01/02 04:35:42;;;;;;;29.60;14.57;;;2.70;99.90;;;;;;4168536;23;20217;-91
2021/01/02 04:37:53;;;;;;;30.30;14.60;;;2.70;99.90;;;;;;4205836;22;20326;-92
2021/01/02 04:40:34;;;;;;;32.47;15.80;;;2.80;99.90;;;;;;4206908;22;20209;-91
2021/01/02 04:42:42;;;;;;;31.33;14.83;;;2.80;99.90;;;;;;4189449;23;20300;-92
2021/01/02 04:45:29;;;;;;;31.37;14.33;;;3.00;99.90;;;;;;4182646;22;20204;-92
2021/01/02 04:47:44;;;;;;;28.17;13.77;;;2.70;99.90;;;;;;4175464;22;20221;-92
2021/01/02 04:50:14;;;;;;;30.83;15.20;;;2.70;99.90;;;;;;4199951;22;20233;-91
2021/01/02 04:53:11;;;;;;;36.03;16.00;;;2.80;99.90;;;;;;4190807;23;20307;-93
2021/01/02 04:55:35;;;;;;;29.07;15.13;;;2.70;99.90;;;;;;4180328;23;20232;-93
2021/01/02 04:57:57;;;;;;;30.37;15.60;;;2.70;99.90;;;;;;4183452;23;20213;-92
2021/01/02 05:00:23;;;;;;;32.97;15.43;;;2.60;99.90;;;;;;4170986;23;20200;-92
2021/01/02 05:02:45;;;;;;;29.57;15.07;;;2.80;99.90;;;;;;4168932;28;20624;-92
2021/01/02 05:04:52;;;;;;;31.53;16.00;;;2.80;99.90;;;;;;4169609;23;20743;-91
2021/01/02 05:06:57;;;;;;;31.73;14.67;;;2.90;99.90;;;;;;4151649;28;20168;-92
2021/01/02 05:09:08;;;;;;;30.17;15.37;;;2.90;99.90;;;;;;4152686;28;20154;-92
2021/01/02 05:11:50;;;;;;;29.10;14.53;;;2.80;99.90;;;;;;4135948;28;20165;-92
2021/01/02 05:14:11;;;;;;;31.33;15.80;;;2.80;99.90;;;;;;4154504;28;20189;-91
2021/01/02 05:16:44;;;;;;;29.57;15.63;;;2.90;99.90;;;;;;4152517;28;20158;-92
2021/01/02 05:18:59;;;;;;;28.20;13.90;;;3.00;99.90;;;;;;4168910;28;20189;-92
2021/01/02 05:21:24;;;;;;;33.27;15.97;;;2.80;99.90;;;;;;4135552;28;20154;-92
2021/01/02 05:26:09;;;;;;;35.33;15.90;;;3.00;99.90;;;;;;4182286;28;20211;-91
2021/01/02 05:30:15;;;;;;;35.20;16.67;;;3.20;99.90;;;;;;4189247;22;20300;-92
2021/01/02 05:32:16;;;;;;;32.60;16.30;;;3.30;99.90;;;;;;4182121;22;20234;-92
2021/01/02 05:34:37;;;;;;;31.17;15.70;;;3.30;99.90;;;;;;4149853;28;20221;-94
2021/01/02 05:37:23;;;;;;;37.33;16.50;;;3.10;99.90;;;;;;4187421;22;20238;-91
2021/01/02 05:40:06;;;;;;;31.37;15.87;;;3.10;99.90;;;;;;4188612;23;20223;-91
2021/01/02 05:45:00;;;;;;;27.70;14.93;;;2.80;99.90;;;;;;4270137;22;20237;-91
2021/01/02 05:47:05;;;;;;;32.27;14.40;;;3.00;99.90;;;;;;4157845;23;20313;-92
2021/01/02 05:49:58;;;;;;;28.07;14.17;;;2.90;99.90;;;;;;4177185;22;20157;-91
2021/01/02 05:52:53;;;;;;;30.53;15.63;;;2.90;99.90;;;;;;4136626;28;20224;-92
2021/01/02 05:55:29;;;;;;;31.27;15.67;;;2.90;99.90;;;;;;4180935;22;20232;-91
2021/01/02 05:57:50;;;;;;;27.13;12.83;;;2.80;99.90;;;;;;4173896;23;20292;-90
2021/01/02 06:00:09;;;;;;;31.70;15.30;;;3.00;99.90;;;;;;4151334;28;20169;-92
2021/01/02 06:02:43;;;;;;;29.60;15.20;;;3.00;99.90;;;;;;4172584;22;20212;-91
2021/01/02 06:05:33;;;;;;;34.43;15.57;;;2.90;99.90;;;;;;4171476;22;20211;-92
2021/01/02 06:08:02;;;;;;;30.87;16.47;;;2.90;99.90;;;;;;4169535;22;20237;-93
2021/01/02 06:10:26;;;;;;;32.27;16.00;;;3.10;99.90;;;;;;4150877;28;20177;-93
2021/01/02 06:12:49;;;;;;;35.33;16.20;;;3.10;99.90;;;;;;4206836;22;20299;-92
2021/01/02 06:17:33;;;;;;;30.30;16.60;;;3.00;99.90;;;;;;4181574;28;20287;-91
2021/01/02 06:19:49;;;;;;;31.80;16.13;;;3.30;99.90;;;;;;4186899;22;20248;-92
2021/01/02 06:24:15;;;;;;;32.43;16.90;;;3.50;99.90;;;;;;4167372;22;20212;31
2021/01/02 06:26:16;;;;;;;32.80;16.27;;;3.50;99.90;;;;;;4171961;22;20224;-92
2021/01/02 06:29:00;;;;;;;29.27;15.93;;;3.60;99.90;;;;;;4184345;22;20230;-91
2021/01/02 06:31:12;;;;;;;32.17;15.77;;;3.50;99.90;;;;;;4200677;28;20179;-92
2021/01/02 06:33:54;;;;;;;33.73;16.13;;;3.50;99.90;;;;;;4298823;22;20244;-93
2021/01/02 06:36:22;;;;;;;29.13;15.70;;;3.50;99.90;;;;;;4155748;22;20209;-92
2021/01/02 06:38:46;;;;;;;29.20;15.27;;;3.50;99.90;;;;;;4178161;22;20286;-91
2021/01/02 06:41:07;;;;;;;33.70;16.20;;;3.50;99.90;;;;;;4207326;22;20243;-93
2021/01/02 06:45:41;;;;;;;29.00;15.73;;;3.50;99.90;;;;;;4181648;28;20196;-92
2021/01/02 06:48:38;;;;;;;28.87;16.07;;;3.60;99.90;;;;;;4208334;22;20234;-93
2021/01/02 06:51:21;;;;;;;32.00;16.53;;;3.70;99.90;;;;;;4163681;22;21149;-92
2021/01/02 06:53:48;;;;;;;36.50;16.37;;;3.70;99.90;;;;;;4178642;22;20228;-92
2021/01/02 06:56:16;;;;;;;31.80;15.77;;;3.70;99.90;;;;;;4179276;23;20235;-92
2021/01/02 06:58:45;;;;;;;32.90;16.20;;;3.80;99.90;;;;;;4201238;22;20239;-93
2021/01/02 07:03:10;;;;;;;32.97;16.13;;;3.80;99.90;;;;;;4207400;22;20219;-92
2021/01/02 07:08:12;;;;;;;32.90;16.30;;;3.80;99.90;;;;;;4187594;22;20221;31
2021/01/02 07:10:37;;;;;;;34.27;17.03;;;3.70;99.90;;;;;;4188967;22;20216;-93
2021/01/02 07:13:17;;;;;;;35.63;16.27;;;3.60;99.90;;;;;;4171565;22;20224;-91
2021/01/02 07:15:43;;;;;;;37.90;17.37;;;3.70;99.90;;;;;;4175572;22;20252;-92
2021/01/02 07:20:58;;;;;;;35.43;20.57;;;3.70;99.90;;;;;;4225874;22;20239;-91
2021/01/02 07:23:10;;;;;;;38.50;21.27;;;3.70;99.90;;;;;;4167805;28;20208;-93
2021/01/02 07:28:09;;;;;;;47.90;27.00;;;3.60;99.90;;;;;;4146931;22;20221;-91
2021/01/02 07:30:27;;;;;;;38.57;22.40;;;3.70;99.90;;;;;;4166020;23;20208;-92
2021/01/02 07:33:07;;;;;;;33.30;15.57;;;3.80;99.90;;;;;;4179504;22;20297;-91
2021/01/02 07:36:03;;;;;;;33.40;16.53;;;3.80;99.90;;;;;;4255382;22;20248;-92
2021/01/02 07:38:52;;;;;;;36.77;17.20;;;3.80;99.90;;;;;;4183846;28;20230;-91
2021/01/02 07:42:08;;;;;;;30.87;16.70;;;3.70;99.90;;;;;;4244134;22;20254;-92
2021/01/02 07:44:57;;;;;;;28.37;15.37;;;3.70;99.90;;;;;;4229677;22;20242;-91
2021/01/02 07:47:59;;;;;;;31.63;16.87;;;3.70;99.90;;;;;;4296702;22;20219;-91
2021/01/02 07:50:56;;;;;;;31.80;16.83;;;3.90;99.90;;;;;;4186459;28;20177;-91
2021/01/02 07:53:29;;;;;;;38.00;18.70;;;3.90;99.90;;;;;;4186658;22;20236;-91
2021/01/02 07:55:55;;;;;;;29.50;17.63;;;3.80;99.90;;;;;;4152900;28;20284;-91
2021/01/02 07:58:03;;;;;;;28.93;16.07;;;3.80;99.90;;;;;;4167327;22;20225;-92
2021/01/02 08:00:25;;;;;;;42.87;24.57;;;3.60;99.90;;;;;;4175949;22;20179;-92
2021/01/02 08:03:18;;;;;;;31.20;15.53;;;3.50;99.90;;;;;;4166097;22;20175;-92
2021/01/02 08:06:29;;;;;;;30.63;16.80;;;3.60;99.90;;;;;;4216288;22;20235;-91
2021/01/02 08:08:59;;;;;;;38.10;16.97;;;3.70;99.90;;;;;;4169152;28;20176;-92
2021/01/02 08:11:01;;;;;;;32.20;16.67;;;3.40;99.90;;;;;;4176933;22;20247;-91
2021/01/02 08:13:34;;;;;;;36.87;17.77;;;3.60;99.90;;;;;;4175756;23;20299;-92
2021/01/02 08:16:40;;;;;;;31.43;17.37;;;3.70;99.90;;;;;;4197460;22;20200;-92
2021/01/02 08:18:41;;;;;;;31.20;16.80;;;3.80;99.90;;;;;;4202541;22;20234;-91
2021/01/02 08:21:01;;;;;;;34.67;17.80;;;3.70;99.90;;;;;;4185323;22;20272;-91
2021/01/02 08:23:56;;;;;;;31.30;16.67;;;3.30;99.90;;;;;;4173629;23;20296;-92
2021/01/02 08:25:59;;;;;;;34.63;16.73;;;3.30;99.90;;;;;;4210134;22;20262;-91
2021/01/02 08:31:12;;;;;;;34.03;17.27;;;3.30;99.90;;;;;;4224321;22;20242;-91
2021/01/02 08:33:39;;;;;;;39.70;17.03;;;3.50;99.90;;;;;;4215889;22;20199;31
2021/01/02 08:36:07;;;;;;;29.80;16.50;;;3.60;99.90;;;;;;4176732;22;20254;-92
2021/01/02 08:39:04;;;;;;;34.33;16.50;;;3.50;99.90;;;;;;4187773;22;20249;-93
2021/01/02 08:41:20;;;;;;;34.57;16.87;;;3.80;99.90;;;;;;4183172;22;20363;-92
2021/01/02 08:44:02;;;;;;;35.63;17.07;;;3.70;99.90;;;;;;4169046;28;20161;-91
2021/01/02 08:49:14;;;;;;;35.77;16.33;;;3.60;99.90;;;;;;4248520;22;20229;-92
2021/01/02 08:51:58;;;;;;;31.87;16.47;;;3.60;99.90;;;;;;4221877;22;20171;-92
2021/01/02 08:54:47;;;;;;;31.67;16.33;;;3.50;99.90;;;;;;4151182;28;20236;-93
2021/01/02 08:57:56;;;;;;;34.50;15.60;;;3.60;99.90;;;;;;4176873;22;20205;-90
2021/01/02 09:00:45;;;;;;;100.33;46.53;;;3.50;99.90;;;;;;4175396;22;20359;-92
2021/01/02 09:03:36;;;;;;;37.03;21.53;;;3.60;99.90;;;;;;4198282;22;20262;-93
2021/01/02 09:06:39;;;;;;;35.43;17.60;;;3.60;99.90;;;;;;4177613;23;20213;-91
2021/01/02 09:08:40;;;;;;;45.10;23.10;;;3.90;99.90;;;;;;4168234;28;20198;-94
2021/01/02 09:11:11;;;;;;;39.93;22.90;;;4.10;99.90;;;;;;4160938;23;20252;-91
2021/01/02 09:13:25;;;;;;;86.23;57.00;;;4.10;99.90;;;;;;4168383;28;20212;-91
2021/01/02 09:16:19;;;;;;;40.53;21.97;;;4.10;99.90;;;;;;4210257;22;20235;-92
2021/01/02 09:18:49;;;;;;;37.73;19.90;;;4.10;99.90;;;;;;4198645;22;20790;-92
2021/01/02 09:21:40;;;;;;;35.13;17.43;;;4.20;99.90;;;;;;4225511;22;20237;-92
2021/01/02 09:24:48;;;;;;;34.60;17.00;;;4.40;99.90;;;;;;4199922;22;20227;-93
2021/01/02 09:26:55;;;;;;;39.37;16.43;;;4.40;99.90;;;;;;4270110;22;20284;-93
2021/01/02 09:29:24;;;;;;;30.60;16.37;;;3.90;99.90;;;;;;4151416;28;20200;-91
2021/01/02 09:31:43;;;;;;;33.80;16.13;;;4.00;99.90;;;;;;4174798;22;20228;-92
2021/01/02 09:34:06;;;;;;;35.43;16.90;;;4.00;99.90;;;;;;4255957;22;20310;-92
2021/01/02 09:36:33;;;;;;;32.17;17.13;;;4.00;99.90;;;;;;4180662;22;20227;-94
2021/01/02 09:39:08;;;;;;;34.70;16.10;;;3.90;99.90;;;;;;4174317;22;20208;-92
2021/01/02 09:41:55;;;;;;;32.17;16.80;;;3.70;99.90;;;;;;4309245;22;20283;-91
2021/01/02 09:44:29;;;;;;;30.77;16.47;;;3.50;99.90;;;;;;4191952;22;20256;-89
2021/01/02 09:47:24;;;;;;;32.77;16.57;;;3.50;99.90;;;;;;4182914;22;20275;-91
2021/01/02 09:50:15;;;;;;;29.17;16.43;;;3.80;99.90;;;;;;4157387;22;20324;-92
2021/01/02 09:52:54;;;;;;;34.93;16.40;;;3.90;99.90;;;;;;4190196;22;20291;-92
2021/01/02 09:55:41;;;;;;;34.20;16.93;;;3.80;99.90;;;;;;4194470;22;20230;-92
2021/01/02 09:57:57;;;;;;;31.23;16.47;;;3.70;99.90;;;;;;4175011;28;20255;-92
2021/01/02 10:00:19;;;;;;;33.83;17.57;;;3.60;99.90;;;;;;4184007;28;20184;-92
2021/01/02 10:03:02;;;;;;;34.27;16.93;;;3.80;99.90;;;;;;4185798;22;20224;-92
2021/01/02 10:05:19;;;;;;;37.00;17.27;;;4.00;99.90;;;;;;4194806;22;20286;-90
2021/01/02 10:08:07;;;;;;;32.93;16.47;;;4.10;99.90;;;;;;4191772;22;20226;-90
2021/01/02 10:10:40;;;;;;;39.63;16.37;;;4.00;99.90;;;;;;4197892;28;20195;-91
2021/01/02 10:13:17;;;;;;;32.10;17.13;;;4.10;99.90;;;;;;4214420;28;20212;-93
2021/01/02 10:15:44;;;;;;;29.97;15.70;;;4.30;99.90;;;;;;4212332;22;20228;-91
2021/01/02 10:18:08;;;;;;;33.87;16.93;;;4.10;99.90;;;;;;4176973;22;20202;-92
2021/01/02 10:22:17;;;;;;;31.67;15.63;;;4.00;99.90;;;;;;4160480;28;20224;-92
2021/01/02 10:24:52;;;;;;;30.27;15.80;;;3.80;99.90;;;;;;4230508;22;20296;-92
2021/01/02 10:27:33;;;;;;;31.57;16.87;;;3.70;99.90;;;;;;4146003;28;20198;-92
2021/01/02 10:29:36;;;;;;;35.37;16.97;;;4.00;99.90;;;;;;4180465;23;20235;-93
2021/01/02 10:31:58;;;;;;;32.80;17.10;;;4.10;99.90;;;;;;4195101;22;22058;-93
2021/01/02 10:34:24;;;;;;;28.13;14.27;;;4.30;99.90;;;;;;4291425;22;20247;-93
2021/01/02 10:36:25;;;;;;;32.83;17.03;;;4.10;99.90;;;;;;4176028;22;20181;-92
2021/01/02 10:38:26;;;;;;;32.33;16.10;;;4.10;99.90;;;;;;4198553;22;20203;-93
2021/01/02 10:40:27;;;;;;;35.87;16.67;;;4.10;99.90;;;;;;4205985;23;20210;-93
2021/01/02 10:42:31;;;;;;;33.10;15.00;;;4.10;99.90;;;;;;4197050;28;20176;-93
2021/01/02 10:44:33;;;;;;;34.50;16.93;;;4.00;99.90;;;;;;4193511;28;20192;-92
2021/01/02 10:46:52;;;;;;;31.80;17.20;;;4.00;99.90;;;;;;4170374;22;20245;-92
2021/01/02 10:48:54;;;;;;;33.57;16.67;;;4.30;99.90;;;;;;4126638;28;20245;-94
2021/01/02 10:50:55;;;;;;;29.30;16.20;;;4.40;99.90;;;;;;4146669;28;20165;-92
2021/01/02 10:52:56;;;;;;;32.50;14.77;;;4.60;99.90;;;;;;4190973;23;20227;-93
2021/01/02 10:55:00;;;;;;;36.87;16.67;;;4.70;99.90;;;;;;4211189;28;20263;-94
2021/01/02 10:57:01;;;;;;;29.60;16.53;;;5.10;99.90;;;;;;4212276;28;20175;-93
2021/01/02 10:59:06;;;;;;;29.17;15.70;;;5.20;99.90;;;;;;4215137;28;20198;-93
2021/01/02 11:01:14;;;;;;;28.60;15.20;;;5.50;99.90;;;;;;4214165;28;20195;-91
2021/01/02 11:03:57;;;;;;;31.37;14.40;;;5.70;99.90;;;;;;4199028;28;20186;-93
2021/01/02 11:06:18;;;;;;;30.80;15.47;;;5.90;99.90;;;;;;4219021;28;20186;-94
2021/01/02 11:08:23;;;;;;;28.83;15.27;;;5.70;99.90;;;;;;4202344;28;20167;-93
2021/01/02 11:10:26;;;;;;;27.27;15.50;;;5.70;99.90;;;;;;4187926;22;20248;-93
2021/01/02 11:12:40;;;;;;;30.37;14.87;;;5.90;99.90;;;;;;4207100;22;20232;-93
2021/01/02 11:15:04;;;;;;;26.07;14.80;;;5.80;99.90;;;;;;4169949;28;20293;-92
2021/01/02 11:17:15;;;;;;;28.03;13.80;;;5.80;99.90;;;;;;4184641;22;20232;-94
2021/01/02 11:19:45;;;;;;;29.17;14.97;;;5.80;99.90;;;;;;4129210;23;20227;-95
2021/01/02 11:21:52;;;;;;;33.20;17.77;;;5.60;99.90;;;;;;4162365;22;20237;-93
2021/01/02 11:24:12;;;;;;;35.67;18.27;;;5.60;99.90;;;;;;4294223;22;20225;31
2021/01/02 11:26:16;;;;;;;31.47;15.57;;;5.70;99.90;;;;;;4207492;22;20203;-94
2021/01/02 11:28:17;;;;;;;30.57;15.80;;;5.80;99.90;;;;;;4192377;22;20220;-93
2021/01/02 11:30:22;;;;;;;29.37;16.20;;;5.90;99.90;;;;;;4279387;22;20236;-93
2021/01/02 11:32:24;;;;;;;32.23;15.57;;;6.00;99.90;;;;;;4166066;22;20322;-93
2021/01/02 11:34:30;;;;;;;29.30;15.87;;;6.10;99.90;;;;;;4187552;23;20210;-95
2021/01/02 11:37:20;;;;;;;32.13;16.33;;;5.70;99.90;;;;;;4171977;23;20220;-94
2021/01/02 11:39:45;;;;;;;33.53;17.33;;;5.80;99.90;;;;;;4151140;28;20221;-93
2021/01/02 11:41:47;;;;;;;32.77;16.73;;;5.90;99.90;;;;;;4150705;22;20210;-93
2021/01/02 11:43:48;;;;;;;36.90;18.37;;;6.00;99.90;;;;;;4118141;28;20198;-93
2021/01/02 11:45:53;;;;;;;34.57;17.60;;;5.70;99.90;;;;;;4150089;23;20213;-93
2021/01/02 11:47:53;;;;;;;40.43;18.43;;;5.50;99.90;;;;;;4151084;28;20146;-93
2021/01/02 11:49:54;;;;;;;35.53;18.93;;;5.50;99.90;;;;;;4168044;28;20197;-94
2021/01/02 11:52:00;;;;;;;34.77;16.70;;;5.50;99.90;;;;;;4148780;28;20212;-93
2021/01/02 11:56:49;;;;;;;35.17;16.40;;;5.50;99.90;;;;;;4191608;22;20231;-93
2021/01/02 11:58:55;;;;;;;32.73;16.87;;;5.70;99.90;;;;;;4155573;22;20255;-95
2021/01/02 12:01:00;;;;;;;30.63;16.57;;;5.80;99.90;;;;;;4198893;22;20247;-93
2021/01/02 12:03:02;;;;;;;35.70;16.97;;;5.70;99.90;;;;;;4184986;28;20161;-94
2021/01/02 12:05:09;;;;;;;37.57;17.13;;;5.60;99.90;;;;;;4184496;28;20211;-93
2021/01/02 12:09:38;;;;;;;39.57;18.17;;;5.50;99.90;;;;;;4187331;22;20234;-93
2021/01/02 12:12:24;;;;;;;32.10;17.30;;;5.80;99.90;;;;;;4172781;22;20229;-94
2021/01/02 12:14:31;;;;;;;37.23;17.43;;;5.80;99.90;;;;;;4178334;23;20221;-94
2021/01/02 12:17:00;;;;;;;39.33;17.87;;;5.50;99.90;;;;;;4203098;22;20966;-93
2021/01/02 12:19:59;;;;;;;38.30;17.80;;;5.30;99.90;;;;;;4159014;22;20225;-93
2021/01/02 12:25:19;;;;;;;35.90;17.80;;;5.40;99.90;;;;;;4174973;22;20214;-91
2021/01/02 12:27:31;;;;;;;40.70;18.63;;;5.50;99.90;;;;;;4171439;28;20275;-91
2021/01/02 12:29:47;;;;;;;40.73;18.83;;;5.50;99.90;;;;;;4172109;28;20161;-92
2021/01/02 12:31:52;;;;;;;46.87;19.70;;;5.60;99.90;;;;;;4151382;28;20667;-95
2021/01/02 12:33:55;;;;;;;46.83;18.70;;;5.30;99.90;;;;;;4154208;28;20173;-92
2021/01/02 12:35:55;;;;;;;37.40;18.80;;;5.10;99.90;;;;;;4152427;28;20189;-92
2021/01/02 12:38:03;;;;;;;40.47;18.67;;;5.30;99.90;;;;;;4152390;28;20234;-92
2021/01/02 12:40:04;;;;;;;40.07;18.90;;;5.50;99.90;;;;;;4135350;28;20620;-92
2021/01/02 12:42:07;;;;;;;43.63;19.27;;;5.50;99.90;;;;;;4154481;28;20185;-92
2021/01/02 12:44:09;;;;;;;43.07;20.40;;;5.60;99.90;;;;;;4136074;28;20182;-95
2021/01/02 12:46:15;;;;;;;43.30;20.03;;;5.70;99.90;;;;;;4136296;28;20533;-93
2021/01/02 12:48:15;;;;;;;42.27;19.57;;;5.70;99.90;;;;;;4138574;28;20150;-91
2021/01/02 12:50:16;;;;;;;42.27;18.70;;;5.80;99.90;;;;;;4140442;28;20173;-94
2021/01/02 12:52:28;;;;;;;44.30;18.63;;;5.90;99.90;;;;;;4141622;28;20538;-91
2021/01/02 12:54:30;;;;;;;39.53;18.73;;;6.00;99.90;;;;;;4123697;28;20209;-90
2021/01/02 12:56:31;;;;;;;41.97;18.50;;;5.90;99.90;;;;;;4136867;28;20173;-91
2021/01/02 12:58:32;;;;;;;37.33;18.37;;;6.00;99.90;;;;;;4136461;28;20169;-95
2021/01/02 13:00:37;;;;;;;38.10;18.77;;;6.00;99.90;;;;;;4120432;28;20265;-91
2021/01/02 13:02:38;;;;;;;38.60;18.83;;;6.20;99.90;;;;;;4118779;28;20175;-92
2021/01/02 13:04:42;;;;;;;43.93;19.80;;;6.40;99.90;;;;;;4120565;28;20314;-91
2021/01/02 13:07:05;;;;;;;38.10;19.00;;;6.60;99.90;;;;;;4135708;28;20177;-95
2021/01/02 13:09:07;;;;;;;41.40;18.70;;;6.40;99.90;;;;;;4139321;28;20212;-93
2021/01/02 13:11:11;;;;;;;38.03;19.17;;;6.20;99.90;;;;;;4137110;28;20169;-91
2021/01/02 13:13:13;;;;;;;39.53;18.23;;;6.30;99.90;;;;;;4122150;28;20206;-96
2021/01/02 13:15:18;;;;;;;40.80;18.13;;;6.30;99.90;;;;;;4144571;28;20189;-95
2021/01/02 13:18:03;;;;;;;38.30;18.30;;;6.30;99.90;;;;;;4151548;28;20179;-94
2021/01/02 13:20:34;;;;;;;44.07;19.17;;;6.30;99.90;;;;;;4150886;28;20188;-93
2021/01/02 13:23:02;;;;;;;38.47;19.00;;;6.30;99.90;;;;;;4152837;28;20147;-91
2021/01/02 13:25:31;;;;;;;40.40;19.30;;;6.30;99.90;;;;;;4150725;28;20205;-93
2021/01/02 13:27:33;;;;;;;45.87;20.47;;;6.10;99.90;;;;;;4142056;28;20224;-93
2021/01/02 13:29:42;;;;;;;43.83;20.70;;;6.00;99.90;;;;;;4143466;28;20185;-94